createdAt,value
2019-04-16T00:00:46.909Z,16.17
2019-04-16T00:03:16.300Z,16.52
2019-04-16T00:05:49.982Z,17.25
2019-04-16T00:08:32.795Z,12.45
2019-04-16T00:11:03.666Z,12.47
2019-04-16T00:13:35.510Z,13.72
2019-04-16T00:16:04.749Z,16.05
2019-04-16T00:18:33.869Z,11.63
2019-04-16T00:21:22.995Z,14.83
2019-04-16T00:23:53.870Z,12.95
2019-04-16T00:26:26.461Z,13.20
2019-04-16T00:28:53.907Z,12.20
2019-04-16T00:31:23.184Z,14.53
2019-04-16T00:33:52.459Z,15.20
2019-04-16T00:36:21.698Z,16.97
2019-04-16T00:38:53.902Z,13.45
2019-04-16T00:41:21.816Z,13.88
2019-04-16T00:43:50.934Z,15.00
2019-04-16T00:46:20.153Z,15.20
2019-04-16T00:48:49.399Z,11.43
2019-04-16T00:51:18.600Z,11.95
2019-04-16T00:53:47.866Z,11.25
2019-04-16T00:56:17.079Z,13.88
2019-04-16T00:58:46.295Z,11.33
2019-04-16T01:01:15.599Z,11.90
2019-04-16T01:03:44.904Z,16.73
2019-04-16T01:06:14.022Z,15.88
2019-04-16T01:08:54.017Z,14.45
2019-04-16T01:11:15.243Z,14.60
2019-04-16T01:13:45.240Z,14.50
2019-04-16T01:16:14.669Z,13.53
2019-04-16T01:18:43.892Z,13.60
2019-04-16T01:21:14.157Z,14.43
2019-04-16T01:23:48.301Z,15.78
2019-04-16T01:26:15.016Z,12.95
2019-04-16T01:28:55.230Z,14.10
2019-04-16T01:31:26.121Z,14.30
2019-04-16T01:33:56.846Z,13.90
2019-04-16T01:36:33.780Z,13.65
2019-04-16T01:39:16.026Z,13.25
2019-04-16T01:41:38.124Z,16.60
2019-04-16T01:44:07.353Z,12.47
2019-04-16T01:46:36.698Z,13.62
2019-04-16T01:49:09.770Z,12.78
2019-04-16T01:51:37.915Z,14.95
2019-04-16T01:54:07.288Z,15.75
2019-04-16T01:56:36.481Z,15.65
2019-04-16T01:59:06.201Z,18.30
2019-04-16T02:01:35.688Z,16.48
2019-04-16T02:04:05.126Z,16.62
2019-04-16T02:06:34.545Z,16.17
2019-04-16T02:09:05.368Z,15.65
2019-04-16T02:11:34.640Z,17.15
2019-04-16T02:14:04.456Z,15.45
2019-04-16T02:16:33.682Z,14.38
2019-04-16T02:19:02.926Z,17.07
2019-04-16T02:21:33.161Z,13.83
2019-04-16T02:24:02.390Z,14.47
2019-04-16T02:26:31.624Z,14.65
2019-04-16T02:29:00.789Z,17.15
2019-04-16T02:31:29.945Z,16.62
2019-04-16T02:34:01.973Z,16.20
2019-04-16T02:36:31.287Z,19.52
2019-04-16T02:39:00.609Z,13.98
2019-04-16T02:41:31.445Z,17.87
2019-04-16T02:44:00.883Z,17.60
2019-04-16T02:46:32.367Z,17.50
2019-04-16T02:49:00.977Z,15.48
2019-04-16T02:51:41.288Z,17.85
2019-04-16T02:54:13.654Z,16.37
2019-04-16T02:56:54.006Z,21.42
2019-04-16T02:59:36.981Z,16.67
2019-04-16T03:02:07.821Z,17.20
2019-04-16T03:04:41.781Z,17.10
2019-04-16T03:07:11.094Z,18.52
2019-04-16T03:09:41.009Z,13.88
2019-04-16T03:12:10.333Z,14.05
2019-04-16T03:14:39.506Z,20.90
2019-04-16T03:17:28.543Z,17.85
2019-04-16T03:19:59.677Z,19.92
2019-04-16T03:22:30.554Z,17.00
2019-04-16T03:24:59.599Z,16.12
2019-04-16T03:27:28.769Z,16.23
2019-04-16T03:30:02.819Z,17.23
2019-04-16T03:32:33.191Z,18.75
2019-04-16T03:34:59.577Z,17.85
2019-04-16T03:37:30.231Z,18.70
2019-04-16T03:39:59.753Z,19.42
2019-04-16T03:42:29.062Z,21.75
2019-04-16T03:44:58.425Z,16.93
2019-04-16T03:47:27.932Z,16.90
2019-04-16T03:49:59.534Z,18.87
2019-04-16T03:52:28.375Z,14.50
2019-04-16T03:54:57.776Z,16.93
2019-04-16T03:57:27.169Z,20.08
2019-04-16T03:59:56.461Z,18.07
2019-04-16T04:02:25.878Z,18.40
2019-04-16T04:04:57.571Z,18.25
2019-04-16T04:07:26.212Z,19.77
2019-04-16T04:09:58.602Z,19.15
2019-04-16T04:12:27.891Z,19.87
2019-04-16T04:14:57.499Z,17.12
2019-04-16T04:17:27.823Z,19.48
2019-04-16T04:19:57.222Z,17.02
2019-04-16T04:22:26.699Z,20.50
2019-04-16T04:24:56.223Z,18.85
2019-04-16T04:27:25.743Z,20.70
2019-04-16T04:29:56.515Z,20.57
2019-04-16T04:32:26.187Z,19.27
2019-04-16T04:34:55.329Z,25.85
2019-04-16T04:37:24.494Z,23.35
2019-04-16T04:39:53.773Z,23.00
2019-04-16T04:42:25.549Z,20.88
2019-04-16T04:44:53.590Z,21.77
2019-04-16T04:47:22.783Z,24.90
2019-04-16T04:49:51.977Z,20.92
2019-04-16T04:52:21.199Z,20.80
2019-04-16T04:54:51.365Z,18.00
2019-04-16T04:57:21.534Z,23.22
2019-04-16T04:59:51.049Z,24.98
2019-04-16T05:02:20.346Z,22.73
2019-04-16T05:04:54.150Z,26.60
2019-04-16T05:07:25.655Z,32.48
2019-04-16T05:09:54.492Z,37.25
2019-04-16T05:12:24.004Z,32.88
2019-04-16T05:14:57.152Z,30.37
2019-04-16T05:17:26.387Z,26.05
2019-04-16T05:19:55.792Z,26.27
2019-04-16T05:22:25.088Z,23.07
2019-04-16T05:24:54.366Z,26.00
2019-04-16T05:27:23.685Z,25.25
2019-04-16T05:29:54.102Z,23.05
2019-04-16T05:32:25.896Z,21.40
2019-04-16T05:34:54.355Z,22.20
2019-04-16T05:37:23.641Z,24.57
2019-04-16T05:39:53.052Z,20.85
2019-04-16T05:42:25.415Z,23.32
2019-04-16T05:44:53.345Z,22.65
2019-04-16T05:47:22.694Z,24.63
2019-04-16T05:49:54.445Z,23.98
2019-04-16T05:52:23.956Z,24.72
2019-04-16T05:54:55.006Z,25.48
2019-04-16T05:57:27.436Z,28.12
2019-04-16T05:59:56.981Z,22.27
2019-04-16T06:02:40.142Z,33.50
2019-04-16T06:05:09.589Z,36.83
2019-04-16T06:07:39.010Z,37.95
2019-04-16T06:10:08.722Z,34.18
2019-04-16T06:12:42.432Z,36.50
2019-04-16T06:15:31.997Z,31.30
2019-04-16T06:18:11.941Z,26.85
2019-04-16T06:20:45.556Z,21.62
2019-04-16T06:23:16.478Z,24.00
2019-04-16T06:25:48.437Z,24.20
2019-04-16T06:28:28.677Z,22.35
2019-04-16T06:31:11.924Z,20.20
2019-04-16T06:33:52.300Z,23.02
2019-04-16T06:36:31.840Z,18.05
2019-04-16T06:39:11.678Z,18.45
2019-04-16T06:41:48.395Z,17.37
2019-04-16T06:44:17.863Z,16.90
2019-04-16T06:46:48.885Z,18.73
2019-04-16T06:49:22.813Z,15.93
2019-04-16T06:52:15.874Z,17.48
2019-04-16T06:54:54.996Z,15.15
2019-04-16T06:57:31.781Z,16.70
2019-04-16T07:00:54.596Z,15.18
2019-04-16T07:02:43.019Z,18.10
2019-04-16T07:05:10.432Z,14.35
2019-04-16T07:07:45.909Z,14.10
2019-04-16T07:10:16.856Z,13.65
2019-04-16T07:12:46.167Z,14.13
2019-04-16T07:15:15.825Z,14.85
2019-04-16T07:17:46.140Z,13.85
2019-04-16T07:20:15.602Z,15.40
2019-04-16T07:22:45.147Z,15.30
2019-04-16T07:25:16.005Z,11.75
2019-04-16T07:27:57.303Z,14.53
2019-04-16T07:30:28.487Z,14.13
2019-04-16T07:33:00.945Z,12.70
2019-04-16T07:35:47.191Z,12.15
2019-04-16T07:38:21.407Z,12.85
2019-04-16T07:41:11.882Z,13.00
2019-04-16T07:44:03.838Z,12.25
2019-04-16T07:46:40.287Z,12.18
2019-04-16T07:49:17.285Z,13.68
2019-04-16T07:51:48.212Z,14.45
2019-04-16T07:54:28.050Z,14.23
2019-04-16T07:56:57.471Z,14.25
2019-04-16T07:59:31.928Z,16.62
2019-04-16T08:01:57.834Z,13.62
2019-04-16T08:04:29.208Z,13.18
2019-04-16T08:06:58.015Z,12.85
2019-04-16T08:09:29.919Z,13.38
2019-04-16T08:11:58.495Z,12.45
2019-04-16T08:14:27.898Z,12.75
2019-04-16T08:16:57.300Z,15.60
2019-04-16T08:19:36.783Z,13.90
2019-04-16T08:21:57.959Z,10.85
2019-04-16T08:24:32.063Z,13.55
2019-04-16T08:27:01.359Z,13.13
2019-04-16T08:29:30.749Z,12.45
2019-04-16T08:32:00.290Z,11.80
2019-04-16T08:34:29.598Z,11.85
2019-04-16T08:36:58.963Z,11.78
2019-04-16T08:39:28.373Z,15.90
2019-04-16T08:41:57.750Z,11.78
2019-04-16T08:44:27.169Z,11.75
2019-04-16T08:46:58.649Z,11.80
2019-04-16T08:49:27.415Z,11.33
2019-04-16T08:51:56.923Z,11.63
2019-04-16T08:54:26.307Z,14.33
2019-04-16T08:56:55.831Z,13.13
2019-04-16T08:59:25.233Z,14.00
2019-04-16T09:01:55.259Z,11.30
2019-04-16T09:04:25.881Z,9.18
2019-04-16T09:06:55.161Z,12.88
2019-04-16T09:09:26.102Z,12.07
2019-04-16T09:11:56.968Z,11.50
2019-04-16T09:14:27.995Z,11.63
2019-04-16T09:16:59.095Z,11.45
2019-04-16T09:19:28.531Z,14.07
2019-04-16T09:21:57.826Z,11.90
2019-04-16T09:24:28.776Z,11.40
2019-04-16T09:27:08.732Z,10.35
2019-04-16T09:29:56.101Z,11.63
2019-04-16T09:32:33.350Z,13.05
2019-04-16T09:35:18.372Z,13.00
2019-04-16T09:37:49.657Z,10.93
2019-04-16T09:40:37.382Z,13.68
2019-04-16T09:43:17.603Z,10.72
2019-04-16T09:45:42.136Z,13.93
2019-04-16T09:48:11.418Z,13.62
2019-04-16T09:50:46.621Z,10.50
2019-04-16T09:53:12.299Z,12.03
2019-04-16T09:55:41.789Z,10.88
2019-04-16T09:58:15.802Z,12.47
2019-04-16T10:00:47.148Z,14.18
2019-04-16T10:03:24.753Z,10.03
2019-04-16T10:05:54.137Z,14.65
2019-04-16T10:08:23.597Z,13.80
2019-04-16T10:10:53.164Z,10.63
2019-04-16T10:13:30.744Z,12.25
2019-04-16T10:15:55.653Z,11.18
2019-04-16T10:18:24.333Z,14.70
2019-04-16T10:20:53.775Z,11.15
2019-04-16T10:23:24.662Z,14.78
2019-04-16T10:25:54.069Z,10.78
2019-04-16T10:28:26.291Z,14.07
2019-04-16T10:30:55.822Z,11.60
2019-04-16T10:33:25.366Z,10.50
2019-04-16T10:35:57.371Z,11.50
2019-04-16T10:38:45.861Z,11.78
2019-04-16T10:41:22.562Z,12.53
2019-04-16T10:43:59.758Z,10.88
2019-04-16T10:46:32.603Z,10.43
2019-04-16T10:49:03.244Z,10.10
2019-04-16T10:51:40.217Z,11.08
2019-04-16T10:54:14.079Z,9.18
2019-04-16T10:56:48.039Z,9.83
2019-04-16T10:59:36.708Z,13.15
2019-04-16T11:02:11.424Z,11.22
2019-04-16T11:04:48.518Z,12.05
2019-04-16T11:07:25.594Z,10.88
2019-04-16T11:09:54.974Z,12.90
2019-04-16T11:12:25.322Z,9.38
2019-04-16T11:14:54.708Z,11.30
2019-04-16T11:17:25.653Z,10.70
2019-04-16T11:19:55.068Z,11.63
2019-04-16T11:22:24.567Z,16.77
2019-04-16T11:24:53.872Z,14.75
2019-04-16T11:27:23.295Z,11.28
2019-04-16T11:29:52.542Z,10.93
2019-04-16T11:32:31.388Z,11.68
2019-04-16T11:35:00.994Z,12.20
2019-04-16T11:37:35.828Z,14.50
2019-04-16T11:40:01.254Z,11.38
2019-04-16T11:42:30.548Z,12.25
2019-04-16T11:44:59.942Z,11.05
2019-04-16T11:47:33.875Z,12.15
2019-04-16T11:50:00.304Z,11.05
2019-04-16T11:52:29.582Z,12.68
2019-04-16T11:55:00.737Z,13.38
2019-04-16T11:57:33.265Z,10.68
2019-04-16T12:00:07.496Z,9.88
2019-04-16T12:02:33.731Z,10.82
2019-04-16T12:05:08.270Z,11.85
2019-04-16T12:07:41.983Z,13.13
2019-04-16T12:10:13.024Z,12.35
2019-04-16T12:12:53.308Z,11.73
2019-04-16T12:15:24.202Z,12.13
2019-04-16T12:18:07.524Z,10.98
2019-04-16T12:20:44.635Z,12.82
2019-04-16T12:23:31.101Z,13.40
2019-04-16T12:26:18.680Z,12.07
2019-04-16T12:28:58.720Z,10.20
2019-04-16T12:31:32.834Z,11.15
2019-04-16T12:34:06.523Z,12.70
2019-04-16T12:36:52.803Z,11.33
2019-04-16T12:39:37.682Z,10.53
2019-04-16T12:42:17.661Z,14.38
2019-04-16T12:44:51.316Z,14.50
2019-04-16T12:47:34.553Z,14.40
2019-04-16T12:50:06.826Z,12.58
2019-04-16T12:52:43.620Z,12.90
2019-04-16T12:55:23.595Z,12.15
2019-04-16T12:57:59.087Z,12.35
2019-04-16T13:00:35.573Z,12.73
2019-04-16T13:03:17.790Z,12.00
2019-04-16T13:05:47.709Z,10.78
2019-04-16T13:08:18.483Z,11.33
2019-04-16T13:10:52.451Z,12.10
2019-04-16T13:13:23.333Z,11.20
2019-04-16T13:15:54.272Z,12.73
2019-04-16T13:18:25.129Z,10.23
2019-04-16T13:20:57.530Z,14.68
2019-04-16T13:23:45.361Z,10.45
2019-04-16T13:26:28.337Z,13.28
2019-04-16T13:28:59.340Z,15.28
2019-04-16T13:31:28.636Z,10.70
2019-04-16T13:33:57.873Z,11.08
2019-04-16T13:36:28.007Z,11.12
2019-04-16T13:39:02.029Z,15.38
2019-04-16T13:41:34.489Z,12.35
2019-04-16T13:44:11.266Z,10.50
2019-04-16T13:46:40.566Z,15.48
2019-04-16T13:49:14.424Z,12.90
2019-04-16T13:51:45.007Z,9.55
2019-04-16T13:54:16.234Z,10.65
2019-04-16T13:56:51.586Z,10.98
2019-04-16T13:59:37.168Z,12.03
2019-04-16T14:02:08.070Z,12.40
2019-04-16T14:04:37.402Z,14.25
2019-04-16T14:07:06.616Z,13.62
2019-04-16T14:09:35.847Z,10.48
2019-04-16T14:12:05.293Z,13.28
2019-04-16T14:14:34.684Z,12.28
2019-04-16T14:17:10.222Z,12.40
2019-04-16T14:19:38.009Z,11.65
2019-04-16T14:22:05.708Z,12.45
2019-04-16T14:24:34.936Z,11.45
2019-04-16T14:27:04.464Z,14.93
2019-04-16T14:29:35.796Z,13.95
2019-04-16T14:32:04.963Z,10.48
2019-04-16T14:34:44.551Z,11.03
2019-04-16T14:37:13.790Z,9.78
2019-04-16T14:39:45.631Z,10.45
2019-04-16T14:42:14.961Z,13.95
2019-04-16T14:44:45.782Z,9.93
2019-04-16T14:47:15.102Z,11.48
2019-04-16T14:49:47.832Z,12.10
2019-04-16T14:52:19.172Z,10.65
2019-04-16T14:55:06.696Z,10.13
2019-04-16T14:57:39.802Z,9.10
2019-04-16T15:00:10.291Z,8.83
2019-04-16T15:02:42.824Z,11.08
2019-04-16T15:05:22.820Z,11.33
2019-04-16T15:08:00.692Z,12.33
2019-04-16T15:10:43.772Z,13.10
2019-04-16T15:13:26.978Z,11.48
2019-04-16T15:16:10.989Z,12.53
2019-04-16T15:18:35.158Z,10.75
2019-04-16T15:21:18.440Z,12.07
2019-04-16T15:23:49.331Z,10.68
2019-04-16T15:26:36.842Z,12.45
2019-04-16T15:29:07.780Z,11.03
2019-04-16T15:31:48.014Z,11.03
2019-04-16T15:34:18.819Z,10.70
2019-04-16T15:36:51.836Z,10.55
2019-04-16T15:39:22.466Z,9.40
2019-04-16T15:41:53.447Z,10.03
2019-04-16T15:44:27.005Z,9.98
2019-04-16T15:46:57.854Z,10.70
2019-04-16T15:49:28.774Z,8.85
2019-04-16T15:52:10.414Z,11.78
2019-04-16T15:54:47.626Z,10.82
2019-04-16T15:57:24.921Z,10.60
2019-04-16T16:00:12.236Z,12.03
2019-04-16T16:02:51.974Z,8.73
2019-04-16T16:05:28.753Z,10.03
2019-04-16T16:08:13.088Z,9.83
2019-04-16T16:10:58.373Z,10.88
2019-04-16T16:13:29.029Z,10.28
2019-04-16T16:15:58.363Z,10.08
2019-04-16T16:18:29.649Z,9.05
2019-04-16T16:20:59.173Z,8.23
2019-04-16T16:23:32.992Z,10.80
2019-04-16T16:26:00.767Z,8.55
2019-04-16T16:28:29.990Z,9.75
2019-04-16T16:30:59.187Z,10.88
2019-04-16T16:33:31.576Z,8.38
2019-04-16T16:36:02.688Z,9.98
2019-04-16T16:38:31.972Z,12.98
2019-04-16T16:41:01.199Z,8.50
2019-04-16T16:43:30.478Z,10.53
2019-04-16T16:46:01.340Z,10.53
2019-04-16T16:48:30.613Z,9.88
2019-04-16T16:51:00.493Z,7.85
2019-04-16T16:53:31.337Z,9.60
2019-04-16T16:56:21.103Z,8.70
2019-04-16T16:58:56.898Z,9.88
2019-04-16T17:01:33.631Z,8.40
2019-04-16T17:04:02.928Z,9.45
2019-04-16T17:06:32.367Z,11.18
2019-04-16T17:09:01.660Z,9.25
2019-04-16T17:11:33.307Z,9.78
2019-04-16T17:14:05.664Z,7.55
2019-04-16T17:16:35.965Z,11.40
2019-04-16T17:19:05.308Z,9.68
2019-04-16T17:21:34.640Z,8.50
2019-04-16T17:24:03.925Z,8.90
2019-04-16T17:26:34.320Z,11.40
2019-04-16T17:29:03.568Z,10.03
2019-04-16T17:31:35.821Z,9.43
2019-04-16T17:34:04.743Z,8.23
2019-04-16T17:36:34.037Z,8.55
2019-04-16T17:39:09.546Z,9.23
2019-04-16T17:41:38.734Z,11.68
2019-04-16T17:44:15.737Z,7.80
2019-04-16T17:46:46.629Z,8.90
2019-04-16T17:49:23.537Z,13.08
2019-04-16T17:52:03.300Z,10.98
2019-04-16T17:54:34.122Z,10.10
2019-04-16T17:57:23.191Z,9.80
2019-04-16T18:00:11.458Z,16.05
2019-04-16T18:03:04.102Z,11.28
2019-04-16T18:05:40.954Z,9.60
2019-04-16T18:08:12.044Z,10.35
2019-04-16T18:10:49.116Z,10.60
2019-04-16T18:13:32.149Z,9.68
2019-04-16T18:16:10.225Z,14.87
2019-04-16T18:18:47.434Z,13.53
2019-04-16T18:21:27.791Z,15.58
2019-04-16T18:23:59.057Z,10.30
2019-04-16T18:26:46.463Z,11.05
2019-04-16T18:29:20.470Z,12.23
2019-04-16T18:31:56.335Z,12.00
2019-04-16T18:34:27.559Z,10.65
2019-04-16T18:36:58.842Z,11.28
2019-04-16T18:39:37.115Z,11.65
2019-04-16T18:42:05.488Z,14.05
2019-04-16T18:44:40.125Z,11.85
2019-04-16T18:47:27.643Z,14.20
2019-04-16T18:49:58.547Z,11.83
2019-04-16T18:52:27.797Z,13.20
2019-04-16T18:54:57.009Z,11.80
2019-04-16T18:57:26.159Z,13.20
2019-04-16T18:59:55.374Z,12.55
2019-04-16T19:02:26.247Z,16.73
2019-04-16T19:04:55.528Z,16.67
2019-04-16T19:07:24.843Z,17.00
2019-04-16T19:09:54.286Z,17.62
2019-04-16T19:12:23.856Z,20.70
2019-04-16T19:14:53.247Z,20.25
2019-04-16T19:17:22.473Z,17.67
2019-04-16T19:19:52.011Z,16.55
2019-04-16T19:22:21.760Z,16.30
2019-04-16T19:24:51.150Z,14.70
2019-04-16T19:27:20.571Z,16.25
2019-04-16T19:29:49.866Z,16.02
2019-04-16T19:32:19.268Z,22.52
2019-04-16T19:34:48.658Z,15.80
2019-04-16T19:37:17.973Z,17.32
2019-04-16T19:39:47.772Z,17.50
2019-04-16T19:42:18.098Z,14.30
2019-04-16T19:44:47.392Z,16.97
2019-04-16T19:47:16.799Z,14.13
2019-04-16T19:49:46.097Z,13.35
2019-04-16T19:52:17.337Z,19.05
2019-04-16T19:54:46.157Z,17.82
2019-04-16T19:57:15.467Z,21.70
2019-04-16T19:59:46.613Z,18.27
2019-04-16T20:02:15.875Z,18.87
2019-04-16T20:04:45.225Z,13.30
2019-04-16T20:07:14.783Z,15.75
2019-04-16T20:09:43.990Z,11.80
2019-04-16T20:12:13.296Z,9.43
2019-04-16T20:14:42.487Z,13.25
2019-04-16T20:17:11.768Z,11.53
2019-04-16T20:20:00.333Z,11.10
2019-04-16T20:22:30.255Z,11.50
2019-04-16T20:24:59.555Z,11.45
2019-04-16T20:27:28.946Z,10.03
2019-04-16T20:29:58.372Z,13.68
2019-04-16T20:32:31.064Z,15.28
2019-04-16T20:35:00.130Z,13.98
2019-04-16T20:37:29.561Z,11.83
2019-04-16T20:39:58.826Z,11.85
2019-04-16T20:42:28.080Z,13.20
2019-04-16T20:44:57.426Z,13.40
2019-04-16T20:47:27.754Z,13.53
2019-04-16T20:49:57.056Z,12.82
2019-04-16T20:52:26.356Z,17.42
2019-04-16T20:54:56.818Z,13.35
2019-04-16T20:57:26.518Z,15.60
2019-04-16T20:59:56.005Z,14.05
2019-04-16T21:02:26.510Z,11.15
2019-04-16T21:04:58.205Z,11.60
2019-04-16T21:07:26.638Z,13.25
2019-04-16T21:09:56.155Z,10.10
2019-04-16T21:12:25.478Z,15.18
2019-04-16T21:14:55.456Z,10.98
2019-04-16T21:17:24.760Z,11.90
2019-04-16T21:19:53.964Z,12.73
2019-04-16T21:22:24.880Z,15.65
2019-04-16T21:24:54.158Z,13.13
2019-04-16T21:27:23.330Z,12.20
2019-04-16T21:29:52.546Z,13.32
2019-04-16T21:32:23.425Z,10.75
2019-04-16T21:35:10.279Z,13.28
2019-04-16T21:37:47.215Z,13.58
2019-04-16T21:40:16.550Z,12.65
2019-04-16T21:42:45.822Z,12.78
2019-04-16T21:45:16.490Z,15.95
2019-04-16T21:47:45.890Z,12.40
2019-04-16T21:50:16.286Z,12.80
2019-04-16T21:52:46.209Z,13.38
2019-04-16T21:55:15.465Z,12.50
2019-04-16T21:57:45.992Z,11.70
2019-04-16T22:00:35.806Z,12.25
2019-04-16T22:03:09.770Z,13.43
2019-04-16T22:05:38.993Z,12.37
2019-04-16T22:08:08.279Z,12.85
2019-04-16T22:10:37.575Z,12.10
2019-04-16T22:13:06.797Z,11.45
2019-04-16T22:15:36.073Z,13.30
2019-04-16T22:18:08.819Z,15.23
2019-04-16T22:20:36.657Z,19.23
2019-04-16T22:23:05.911Z,12.30
2019-04-16T22:25:35.222Z,14.80
2019-04-16T22:28:04.457Z,11.03
2019-04-16T22:30:34.611Z,12.10
2019-04-16T22:33:06.729Z,16.80
2019-04-16T22:35:34.807Z,11.20
2019-04-16T22:38:03.954Z,11.95
2019-04-16T22:40:34.761Z,12.63
2019-04-16T22:43:09.101Z,14.68
2019-04-16T22:45:43.056Z,12.60
2019-04-16T22:48:13.400Z,13.88
2019-04-16T22:50:42.641Z,11.68
2019-04-16T22:53:16.992Z,12.73
2019-04-16T22:55:42.859Z,10.98
2019-04-16T22:58:24.933Z,14.05
2019-04-16T23:00:55.718Z,12.40
2019-04-16T23:03:24.880Z,13.03
2019-04-16T23:05:54.133Z,12.30
2019-04-16T23:08:23.367Z,10.88
2019-04-16T23:10:52.689Z,15.60
2019-04-16T23:13:21.936Z,12.35
2019-04-16T23:15:51.198Z,11.97
2019-04-16T23:18:20.445Z,12.03
2019-04-16T23:20:49.738Z,14.63
2019-04-16T23:23:19.376Z,14.73
2019-04-16T23:25:48.625Z,12.33
2019-04-16T23:28:17.866Z,12.00
2019-04-16T23:30:47.964Z,13.32
2019-04-16T23:33:17.936Z,11.45
2019-04-16T23:35:47.172Z,12.98
2019-04-16T23:38:16.345Z,14.13
2019-04-16T23:40:45.502Z,13.50
2019-04-16T23:43:32.956Z,15.28
2019-04-16T23:46:20.580Z,15.75
2019-04-16T23:49:07.782Z,12.73
2019-04-16T23:51:48.387Z,16.30
2019-04-16T23:54:22.222Z,16.85
2019-04-16T23:56:53.900Z,14.70
2019-04-16T23:59:24.921Z,13.00
